Time;durP1;ratioP1;P1;durP2;ratioP2;P2;SDS_P1;SDS_P2;PMS_P1;PMS_P2;Temp;Humidity;BMP_temperature;BMP_pressure;BME280_temperature;BME280_humidity;BME280_pressure;Samples;Min_cycle;Max_cycle;Signal;HPM_P1;HPM_P2
2021/06/17 00:02:01;;;;;;;6.1;3.7;;;;;;;18.94;66.82227;937.1931;;;;
2021/06/17 00:04:26;;;;;;;4.2;3.5;;;;;;;18.86;66.99609;937.1701;;;;
2021/06/17 00:06:52;;;;;;;6.9;3.4;;;;;;;18.66;67.65234;937.1052;;;;
2021/06/17 00:09:17;;;;;;;6.9;3.8;;;;;;;18.45;68.44434;937.2047;;;;
2021/06/17 00:11:44;;;;;;;4.8;3.3;;;;;;;18.43;68.6748;937.2205;;;;
2021/06/17 00:14:09;;;;;;;7.4;3.7;;;;;;;18.48;68.47363;937.1976;;;;
2021/06/17 00:16:34;;;;;;;4.4;3.3;;;;;;;18.59;68;937.1894;;;;
2021/06/17 00:18:59;;;;;;;5.5;3.9;;;;;;;18.6;68.0625;937.1608;;;;
2021/06/17 00:21:24;;;;;;;3.6;3.3;;;;;;;18.39;68.45898;937.1671;;;;
2021/06/17 00:27:47;;;;;;;4;3.5;;;;;;;18.65;68.06934;937.1297;;;;
2021/06/17 00:30:12;;;;;;;6.1;3.5;;;;;;;18.49;68.8252;937.1415;;;;
2021/06/17 00:32:37;;;;;;;4.4;3.6;;;;;;;18.59;68.39746;937.1248;;;;
2021/06/17 00:35:02;;;;;;;4.5;3.3;;;;;;;18.58;68.09375;937.1259;;;;
2021/06/17 00:37:30;;;;;;;4.5;3.3;;;;;;;18.52;67.99219;937.1014;;;;
2021/06/17 00:39:55;;;;;;;5.7;3.7;;;;;;;18.5;68.15039;937.1019;;;;
2021/06/17 00:42:21;;;;;;;4.3;3.7;;;;;;;18.46;68.22656;937.1406;;;;
2021/06/17 00:44:46;;;;;;;4.8;3.9;;;;;;;18.54;68.13477;937.159;;;;
2021/06/17 00:47:14;;;;;;;6.4;3.6;;;;;;;18.34;68.43945;937.0964;;;;
2021/06/17 00:49:39;;;;;;;4.7;3.4;;;;;;;18.24;68.89063;937.0372;;;;
2021/06/17 00:52:06;;;;;;;5.4;3.7;;;;;;;18.37;68.63086;937.1022;;;;
2021/06/17 00:54:33;;;;;;;6.7;3.7;;;;;;;18.42;68.58008;937.0277;;;;
2021/06/17 00:56:57;;;;;;;6.8;3.9;;;;;;;18.25;69.08887;937.1186;;;;
2021/06/17 00:59:22;;;;;;;3.9;3.5;;;;;;;18.12;69.75488;937.171;;;;
2021/06/17 01:01:50;;;;;;;6.3;4.1;;;;;;;18.23;69.62109;937.0745;;;;
2021/06/17 01:04:18;;;;;;;6.1;3.8;;;;;;;18.32;69.55371;937.1418;;;;
2021/06/17 01:06:43;;;;;;;5.7;3.8;;;;;;;18.34;69.06836;937.077;;;;
2021/06/17 01:09:08;;;;;;;6.1;3.8;;;;;;;18.28;69.24316;937.1066;;;;
2021/06/17 01:11:33;;;;;;;7.1;3.6;;;;;;;18.19;69.47266;937.068;;;;
2021/06/17 01:13:58;;;;;;;5;3.7;;;;;;;18.23;69.44531;937.0295;;;;
2021/06/17 01:16:28;;;;;;;6.1;3.7;;;;;;;18.25;69.3916;937.0233;;;;
2021/06/17 01:18:53;;;;;;;4.4;3.6;;;;;;;18.26;69.42773;936.9949;;;;
2021/06/17 01:21:18;;;;;;;5.3;3.4;;;;;;;18.28;69.24414;936.967;;;;
2021/06/17 01:23:43;;;;;;;4.8;3.2;;;;;;;18.31;69.29492;936.9899;;;;
2021/06/17 01:26:37;;;;;;;4.5;3.8;;;;;;;18.29;69.45508;936.9564;;;;
2021/06/17 01:29:02;;;;;;;6.3;3.9;;;;;;;18.29;69.50195;936.9363;;;;
2021/06/17 01:31:27;;;;;;;5.5;3.7;;;;;;;18.23;69.21289;936.9634;;;;
2021/06/17 01:33:52;;;;;;;6.1;3.4;;;;;;;18.13;69.45313;936.9434;;;;
2021/06/17 01:36:18;;;;;;;5.4;3.6;;;;;;;18.1;69.68066;936.9256;;;;
2021/06/17 01:38:48;;;;;;;7.6;3.6;;;;;;;18.11;69.69434;936.9383;;;;
2021/06/17 01:41:14;;;;;;;6.2;3.9;;;;;;;18.08;70.10742;936.868;;;;
2021/06/17 01:43:44;;;;;;;5.6;4;;;;;;;18.07;69.68848;936.923;;;;
2021/06/17 01:46:09;;;;;;;5.5;3.5;;;;;;;18.11;69.29785;936.9231;;;;
2021/06/17 01:48:34;;;;;;;6.6;4.3;;;;;;;18.03;69.50684;936.8433;;;;
2021/06/17 01:51:30;;;;;;;4.5;3.4;;;;;;;17.95;70.04004;936.8423;;;;
2021/06/17 01:53:59;;;;;;;8.2;4.3;;;;;;;17.8;70.75977;936.8281;;;;
2021/06/17 01:56:24;;;;;;;5.6;4;;;;;;;17.73;71.07129;936.7589;;;;
2021/06/17 01:58:52;;;;;;;4.5;3.5;;;;;;;17.67;71.19043;936.8242;;;;
2021/06/17 02:01:17;;;;;;;5.4;3.7;;;;;;;17.59;71.27051;936.8198;;;;
2021/06/17 02:03:45;;;;;;;5.2;3.7;;;;;;;17.59;71.21191;936.7747;;;;
2021/06/17 02:06:10;;;;;;;5.7;3.7;;;;;;;17.77;70.7666;936.6733;;;;
2021/06/17 02:08:36;;;;;;;5.3;3.6;;;;;;;17.81;70.15723;936.7717;;;;
2021/06/17 02:11:05;;;;;;;5.6;3.7;;;;;;;17.77;70.18555;936.7612;;;;
2021/06/17 02:13:30;;;;;;;4.4;3.7;;;;;;;17.81;70.04102;936.7136;;;;
2021/06/17 02:15:59;;;;;;;5.1;3.4;;;;;;;17.71;70.37207;936.7134;;;;
2021/06/17 02:18:27;;;;;;;6.4;3.7;;;;;;;17.64;71.15137;936.7338;;;;
2021/06/17 02:20:52;;;;;;;5.1;3.5;;;;;;;17.69;70.99805;936.6807;;;;
2021/06/17 02:23:17;;;;;;;4;3.6;;;;;;;17.82;70.60059;936.6331;;;;
2021/06/17 02:25:42;;;;;;;7;3.7;;;;;;;17.84;70.18457;936.5595;;;;
2021/06/17 02:28:10;;;;;;;6.4;3.8;;;;;;;17.61;71.2627;936.5577;;;;
2021/06/17 02:30:36;;;;;;;6.4;3.8;;;;;;;17.63;70.92969;936.5947;;;;
2021/06/17 02:33:04;;;;;;;4.4;3.8;;;;;;;17.42;71.8916;936.6498;;;;
2021/06/17 02:35:29;;;;;;;6.8;4.2;;;;;;;17.5;71.46484;936.6308;;;;
2021/06/17 02:38:00;;;;;;;7.9;4.3;;;;;;;17.52;71.49023;936.5975;;;;
2021/06/17 02:40:25;;;;;;;6.2;3.7;;;;;;;17.18;72.80469;936.6187;;;;
2021/06/17 02:42:50;;;;;;;7.9;3.9;;;;;;;17.18;73.00098;936.6026;;;;
2021/06/17 02:45:16;;;;;;;10;4.5;;;;;;;17.06;73.5957;936.5661;;;;
2021/06/17 02:47:42;;;;;;;8.3;3.9;;;;;;;17.09;73.5293;936.5689;;;;
2021/06/17 02:50:08;;;;;;;5.6;3.9;;;;;;;16.94;73.7832;936.4611;;;;
2021/06/17 02:52:36;;;;;;;9.4;4.9;;;;;;;17.05;73.55957;936.5204;;;;
2021/06/17 02:55:01;;;;;;;7.8;4.6;;;;;;;17.05;73.59473;936.4568;;;;
2021/06/17 02:57:28;;;;;;;8.5;4.6;;;;;;;17.16;73.10156;936.4702;;;;
2021/06/17 02:59:53;;;;;;;8.3;4.7;;;;;;;17.1;73.29102;936.55;;;;
2021/06/17 03:02:20;;;;;;;9.8;4.8;;;;;;;17.3;72.52246;936.4952;;;;
2021/06/17 03:04:45;;;;;;;8.5;4.6;;;;;;;17.23;72.73242;936.4875;;;;
2021/06/17 03:07:13;;;;;;;8.3;4.3;;;;;;;17.12;73.38477;936.4686;;;;
2021/06/17 03:09:38;;;;;;;7.5;4.7;;;;;;;17.03;73.82129;936.4469;;;;
2021/06/17 03:12:03;;;;;;;7.4;4.4;;;;;;;16.92;74.20898;936.4856;;;;
2021/06/17 03:14:28;;;;;;;11.2;4.4;;;;;;;16.88;74.33008;936.4853;;;;
2021/06/17 03:17:00;;;;;;;8.3;4.6;;;;;;;16.98;74.0459;936.5303;;;;
2021/06/17 03:19:29;;;;;;;6.2;4.3;;;;;;;16.7;75.16797;936.5027;;;;
2021/06/17 03:21:54;;;;;;;5;4.2;;;;;;;16.6;75.74219;936.511;;;;
2021/06/17 03:24:19;;;;;;;5.2;4.5;;;;;;;16.85;74.75488;936.5567;;;;
2021/06/17 03:26:47;;;;;;;7.2;5.2;;;;;;;16.87;74.61816;936.5355;;;;
2021/06/17 03:29:12;;;;;;;8.8;4.7;;;;;;;16.83;74.78418;936.4807;;;;
2021/06/17 03:31:37;;;;;;;7;4.9;;;;;;;16.73;75.06836;936.548;;;;
2021/06/17 03:34:05;;;;;;;11;4.9;;;;;;;16.79;75.46191;936.5856;;;;
2021/06/17 03:36:30;;;;;;;8.3;4.7;;;;;;;16.96;74.34375;936.5273;;;;
2021/06/17 03:38:59;;;;;;;9.7;4.4;;;;;;;17;74.15332;936.5974;;;;
2021/06/17 03:41:25;;;;;;;8.6;4.4;;;;;;;16.9;74.50684;936.6564;;;;
2021/06/17 03:43:59;;;;;;;6.7;4.1;;;;;;;16.85;74.52246;936.6685;;;;
2021/06/17 03:46:26;;;;;;;6.8;4.2;;;;;;;16.87;74.66504;936.6367;;;;
2021/06/17 03:48:52;;;;;;;5.9;4.2;;;;;;;17.01;74.0625;936.6592;;;;
2021/06/17 03:51:19;;;;;;;6.1;4.4;;;;;;;17.22;73.80859;936.7067;;;;
2021/06/17 03:53:44;;;;;;;5.8;4.2;;;;;;;17.28;73.57422;936.6669;;;;
2021/06/17 03:56:10;;;;;;;5.6;4.5;;;;;;;17.3;73.11523;936.6584;;;;
2021/06/17 03:58:38;;;;;;;7.6;4.4;;;;;;;17.38;72.83887;936.6899;;;;
2021/06/17 04:02:30;;;;;;;8.9;5.4;;;;;;;16.99;74.25781;936.7022;;;;
2021/06/17 04:04:55;;;;;;;5.9;4.6;;;;;;;16.95;74.69043;936.7511;;;;
2021/06/17 04:07:23;;;;;;;8.9;5.2;;;;;;;16.9;75.12109;936.7183;;;;
2021/06/17 04:09:48;;;;;;;7.9;4.9;;;;;;;16.98;74.63672;936.8287;;;;
2021/06/17 04:12:17;;;;;;;9.9;5.1;;;;;;;17.16;74.44629;936.7775;;;;
2021/06/17 04:14:42;;;;;;;13.9;6;;;;;;;17.31;73.71777;936.8113;;;;
2021/06/17 04:17:16;;;;;;;10.9;5.6;;;;;;;17.27;73.45703;936.8787;;;;
2021/06/17 04:19:41;;;;;;;7.2;4.7;;;;;;;17.33;73.50195;936.8792;;;;
2021/06/17 04:22:07;;;;;;;6.8;4.5;;;;;;;17.37;73.30957;936.8714;;;;
2021/06/17 04:24:32;;;;;;;6.7;4.4;;;;;;;17.47;73.14258;936.8946;;;;
2021/06/17 04:26:58;;;;;;;5.9;4.8;;;;;;;17.51;72.7666;936.9059;;;;
2021/06/17 04:29:23;;;;;;;6.7;4.8;;;;;;;17.51;72.99902;936.9302;;;;
2021/06/17 04:31:50;;;;;;;7.4;4.9;;;;;;;17.48;73.0293;936.8831;;;;
2021/06/17 04:34:15;;;;;;;10.3;5.1;;;;;;;17.45;73.29004;937.0005;;;;
2021/06/17 04:36:42;;;;;;;6.9;4.7;;;;;;;17.36;73.9707;936.9858;;;;
2021/06/17 04:39:08;;;;;;;6.1;4.8;;;;;;;17.32;73.80273;936.9116;;;;
2021/06/17 04:41:34;;;;;;;6.5;4.7;;;;;;;17.42;73.42285;936.8752;;;;
2021/06/17 04:43:59;;;;;;;6.6;4.5;;;;;;;17.37;73.88965;936.8681;;;;
2021/06/17 04:46:24;;;;;;;8.5;4.8;;;;;;;17.52;73.60352;936.8212;;;;
2021/06/17 04:48:51;;;;;;;6.6;4.4;;;;;;;17.54;73.36328;936.8837;;;;
2021/06/17 04:51:17;;;;;;;7.5;5;;;;;;;17.44;73.3916;936.8928;;;;
2021/06/17 04:53:44;;;;;;;6.1;4.9;;;;;;;17.42;73.79395;936.8425;;;;
2021/06/17 04:56:09;;;;;;;8.2;5;;;;;;;17.6;73.62695;936.8696;;;;
2021/06/17 04:58:36;;;;;;;11.7;5.7;;;;;;;17.66;73.43066;936.8992;;;;
2021/06/17 05:01:00;;;;;;;11.2;5.6;;;;;;;17.78;73.75195;936.8873;;;;
2021/06/17 05:03:26;;;;;;;8.6;4.8;;;;;;;18.64;71.86035;936.8226;;;;
2021/06/17 05:05:52;;;;;;;9.1;4.6;;;;;;;19.98;65.16016;936.8094;;;;
2021/06/17 05:10:49;;;;;;;7.1;4.4;;;;;;;21.41;60.57227;936.8116;;;;
2021/06/17 05:13:08;;;;;;;7.4;4.6;;;;;;;22.77;57.82227;936.7827;;;;
2021/06/17 05:15:38;;;;;;;8.8;5.1;;;;;;;23.86;53.0791;936.81;;;;
2021/06/17 05:18:03;;;;;;;7.3;4.3;;;;;;;24.81;50.2666;936.8386;;;;
2021/06/17 05:20:32;;;;;;;9.2;4.8;;;;;;;25.12;49.27539;936.8496;;;;
2021/06/17 05:22:58;;;;;;;5.5;4.3;;;;;;;25.09;48.43457;936.8169;;;;
2021/06/17 05:25:23;;;;;;;8.4;4.3;;;;;;;25.67;47.38672;936.7994;;;;
2021/06/17 05:27:50;;;;;;;7.7;4.2;;;;;;;26.03;46.72656;936.822;;;;
2021/06/17 05:30:15;;;;;;;9.3;4.3;;;;;;;26.22;46.33301;936.844;;;;
2021/06/17 05:32:42;;;;;;;5.9;3.8;;;;;;;26.18;46.75488;936.8923;;;;
2021/06/17 05:35:09;;;;;;;5.9;4;;;;;;;25.31;48.56543;936.8411;;;;
2021/06/17 05:37:34;;;;;;;6;4.2;;;;;;;25.8;48.2041;936.8329;;;;
2021/06/17 05:40:00;;;;;;;6.5;4;;;;;;;25.93;47.8877;936.8476;;;;
2021/06/17 05:42:25;;;;;;;5.6;3.9;;;;;;;26.14;47.06934;936.85;;;;
2021/06/17 05:44:53;;;;;;;7.2;4;;;;;;;26.33;47.18457;936.8343;;;;
2021/06/17 05:47:17;;;;;;;5.9;4.2;;;;;;;25.84;48.49219;936.8031;;;;
2021/06/17 05:49:44;;;;;;;7.9;4.2;;;;;;;26.28;47.27344;936.7831;;;;
2021/06/17 05:52:09;;;;;;;7.7;4;;;;;;;27.05;45.79102;936.7697;;;;
2021/06/17 05:54:38;;;;;;;6.7;4.1;;;;;;;26.61;46.68066;936.7883;;;;
2021/06/17 05:57:03;;;;;;;7.6;4.4;;;;;;;27.11;45.67871;936.7936;;;;
2021/06/17 05:59:32;;;;;;;6.8;4.5;;;;;;;27.96;45.5498;936.8342;;;;
2021/06/17 06:01:56;;;;;;;8.4;4.3;;;;;;;28.8;43.33887;936.8121;;;;
2021/06/17 06:04:24;;;;;;;8.7;4.3;;;;;;;30.2;38.4248;936.8773;;;;
2021/06/17 06:07:33;;;;;;;5.8;4.1;;;;;;;30.28;37.94141;936.8677;;;;
2021/06/17 06:10:26;;;;;;;5.8;4.4;;;;;;;29.82;38.43945;936.887;;;;
2021/06/17 06:12:53;;;;;;;6.6;4.5;;;;;;;29.9;39.23438;936.9135;;;;
2021/06/17 06:15:18;;;;;;;7.1;4.5;;;;;;;29.67;39.44043;936.9026;;;;
2021/06/17 06:17:48;;;;;;;8.3;5;;;;;;;30.89;36.9043;936.9484;;;;
2021/06/17 06:20:13;;;;;;;5.3;4.3;;;;;;;30.2;36.93262;936.9467;;;;
2021/06/17 06:22:38;;;;;;;8.8;5.1;;;;;;;30.87;36.44922;936.9087;;;;
2021/06/17 06:25:18;;;;;;;7.6;5.5;;;;;;;31.23;35.30469;936.8906;;;;
2021/06/17 06:27:46;;;;;;;8.8;5.3;;;;;;;32.55;33.47559;936.858;;;;
2021/06/17 06:30:11;;;;;;;7.1;4.9;;;;;;;33.17;32.39258;936.8692;;;;
2021/06/17 06:32:36;;;;;;;6.3;4.6;;;;;;;33.54;32.1416;936.8858;;;;
2021/06/17 06:35:01;;;;;;;9.4;4.7;;;;;;;34.46;30.6416;936.8922;;;;
2021/06/17 06:37:26;;;;;;;6.6;4.4;;;;;;;35.4;29.31543;936.8819;;;;
2021/06/17 06:39:54;;;;;;;7;4.2;;;;;;;35.32;29.0332;936.8851;;;;
2021/06/17 06:42:19;;;;;;;5.3;4.1;;;;;;;35.51;30.75977;936.9291;;;;
2021/06/17 06:44:47;;;;;;;6.3;4.3;;;;;;;35.68;31.62891;936.8699;;;;
2021/06/17 06:47:15;;;;;;;7.2;4.4;;;;;;;36.81;28.0498;936.8627;;;;
2021/06/17 06:49:41;;;;;;;10.9;4.3;;;;;;;36.26;29.68555;936.8798;;;;
2021/06/17 06:52:08;;;;;;;9.6;4.5;;;;;;;37.3;26.41895;936.8808;;;;
2021/06/17 06:54:33;;;;;;;5.9;4.2;;;;;;;37.38;27.64746;936.9059;;;;
2021/06/17 06:57:03;;;;;;;5.6;4.6;;;;;;;38.43;24.76953;936.947;;;;
2021/06/17 06:59:30;;;;;;;5.9;4.2;;;;;;;37.36;24.91797;936.9334;;;;
2021/06/17 07:01:57;;;;;;;4.7;3.9;;;;;;;37.47;26.52539;936.9753;;;;
2021/06/17 07:04:23;;;;;;;6.3;4.2;;;;;;;36.5;28.1875;936.9863;;;;
2021/06/17 07:06:48;;;;;;;6.5;4.1;;;;;;;36.35;28.17773;936.992;;;;
2021/06/17 07:09:15;;;;;;;4.7;4.3;;;;;;;38.02;26.12012;937.0162;;;;
2021/06/17 07:11:40;;;;;;;4.9;3.8;;;;;;;39.21;25.23828;937.0726;;;;
2021/06/17 07:14:09;;;;;;;8.5;4.5;;;;;;;39.17;24.78516;937.0259;;;;
2021/06/17 07:16:42;;;;;;;6.8;4.2;;;;;;;39.56;25.0498;937.0446;;;;
2021/06/17 07:19:11;;;;;;;4.9;4.4;;;;;;;39.75;24.41406;937.0008;;;;
2021/06/17 07:21:35;;;;;;;4.5;4.1;;;;;;;38.83;24.51172;936.9662;;;;
2021/06/17 07:24:01;;;;;;;6.1;4.3;;;;;;;39.91;23.3252;936.9345;;;;
2021/06/17 07:26:27;;;;;;;4.9;4.5;;;;;;;39.73;23.48633;936.9224;;;;
2021/06/17 07:29:03;;;;;;;6;4.4;;;;;;;38.85;24.56055;936.9347;;;;
2021/06/17 07:31:31;;;;;;;4.8;4;;;;;;;39.16;23.65332;936.9509;;;;
2021/06/17 07:33:56;;;;;;;5.8;4.2;;;;;;;38.14;24.11035;936.9444;;;;
2021/06/17 07:36:21;;;;;;;5.4;3.9;;;;;;;37.81;23.98438;936.9459;;;;
2021/06/17 07:38:48;;;;;;;6.7;4.1;;;;;;;38.29;25.37012;936.955;;;;
2021/06/17 07:41:14;;;;;;;4.2;3.8;;;;;;;39.29;23.33105;936.9528;;;;
2021/06/17 07:43:44;;;;;;;5.5;4.1;;;;;;;39.28;23.69531;936.9633;;;;
2021/06/17 07:46:10;;;;;;;7.2;4.1;;;;;;;39.8;22.73438;936.8836;;;;
2021/06/17 07:48:35;;;;;;;4.6;4;;;;;;;40.71;22.49805;936.875;;;;
2021/06/17 07:51:01;;;;;;;6;4.5;;;;;;;42.19;21.75;936.821;;;;
2021/06/17 07:53:29;;;;;;;6.1;4.3;;;;;;;41.41;21.98242;936.7572;;;;
2021/06/17 07:55:54;;;;;;;4.2;3.8;;;;;;;40.88;22.61719;936.801;;;;
2021/06/17 07:58:21;;;;;;;5;4.5;;;;;;;40.2;21.64355;936.7294;;;;
2021/06/17 08:00:46;;;;;;;4.9;4.1;;;;;;;40.33;22.24805;936.7346;;;;
2021/06/17 08:03:13;;;;;;;4.7;4.2;;;;;;;40.67;22.14258;936.6969;;;;
2021/06/17 08:05:38;;;;;;;5.3;4.6;;;;;;;41.18;21.72656;936.7042;;;;
2021/06/17 08:08:04;;;;;;;4.8;4.3;;;;;;;41.45;22.60742;936.7029;;;;
2021/06/17 08:10:29;;;;;;;4.5;4.1;;;;;;;41.6;21.51367;936.6577;;;;
2021/06/17 08:12:57;;;;;;;18;4.7;;;;;;;41.42;22.10449;936.6462;;;;
2021/06/17 08:15:26;;;;;;;4.7;4.3;;;;;;;40.54;21.28125;936.6541;;;;
2021/06/17 08:17:55;;;;;;;6.1;4;;;;;;;40.38;21.17676;936.6602;;;;
2021/06/17 08:20:20;;;;;;;7.6;4.1;;;;;;;40.73;23.20801;936.6733;;;;
2021/06/17 08:22:47;;;;;;;4.3;3.9;;;;;;;41.29;21.33984;936.6525;;;;
2021/06/17 08:25:13;;;;;;;4.9;4.2;;;;;;;41.33;22.50391;936.6495;;;;
2021/06/17 08:27:42;;;;;;;4.5;4.1;;;;;;;40.94;20.56641;936.6581;;;;
2021/06/17 08:30:07;;;;;;;6.1;4.2;;;;;;;41.06;21.43945;936.6535;;;;
2021/06/17 08:32:32;;;;;;;4.5;4.1;;;;;;;40.35;23.44531;936.6298;;;;
2021/06/17 08:35:01;;;;;;;7.3;4.8;;;;;;;40.83;23.07813;936.6177;;;;
2021/06/17 08:37:26;;;;;;;4.6;4.2;;;;;;;40.07;25.8584;936.6131;;;;
2021/06/17 08:39:55;;;;;;;6.5;4.4;;;;;;;41.09;23.72754;936.6038;;;;
2021/06/17 08:42:19;;;;;;;5.3;4.7;;;;;;;40.7;25.29492;936.6534;;;;
2021/06/17 08:44:44;;;;;;;6.3;4.6;;;;;;;40.04;25.58789;936.6351;;;;
2021/06/17 08:47:10;;;;;;;4.7;4.3;;;;;;;40.13;25.28809;936.5909;;;;
2021/06/17 08:49:35;;;;;;;4.8;4.3;;;;;;;39.65;26.13867;936.6182;;;;
2021/06/17 08:52:00;;;;;;;4.5;4.1;;;;;;;39.15;25.5752;936.5726;;;;
2021/06/17 08:54:29;;;;;;;5.4;4.4;;;;;;;39.78;24.87891;936.5183;;;;
2021/06/17 08:56:53;;;;;;;5.3;4.8;;;;;;;37.84;28.42773;936.4813;;;;
2021/06/17 08:59:19;;;;;;;5;4.5;;;;;;;38.44;27.60156;936.5581;;;;
2021/06/17 09:01:44;;;;;;;6.9;4.5;;;;;;;39.14;25.14844;936.5408;;;;
2021/06/17 09:04:12;;;;;;;5;3.7;;;;;;;39.09;26.10742;936.573;;;;
2021/06/17 09:06:37;;;;;;;4.8;3.9;;;;;;;39.38;24.99121;936.508;;;;
2021/06/17 09:09:02;;;;;;;4.4;3.5;;;;;;;38.95;25.58887;936.5552;;;;
2021/06/17 09:11:27;;;;;;;4.8;3.7;;;;;;;38.47;26.70508;936.5137;;;;
2021/06/17 09:13:53;;;;;;;4.5;3.9;;;;;;;38.19;27.1377;936.5385;;;;
2021/06/17 09:16:19;;;;;;;3.8;3.4;;;;;;;38.6;25.2168;936.5743;;;;
2021/06/17 09:18:47;;;;;;;4.8;3.4;;;;;;;37.72;27.34082;936.5833;;;;
2021/06/17 09:21:12;;;;;;;3.2;2.9;;;;;;;37.53;26.0918;936.5765;;;;
2021/06/17 09:23:41;;;;;;;5.6;3.4;;;;;;;36.28;27.37598;936.5511;;;;
2021/06/17 09:26:06;;;;;;;6.7;3.8;;;;;;;35.16;29.15527;936.6014;;;;
2021/06/17 09:28:32;;;;;;;5.9;3.6;;;;;;;34.4;31.02246;936.5542;;;;
2021/06/17 09:30:57;;;;;;;3.7;3.2;;;;;;;34.37;31.27344;936.5331;;;;
2021/06/17 09:33:26;;;;;;;4;3.5;;;;;;;34.52;30.89844;936.5125;;;;
2021/06/17 09:35:49;;;;;;;3.8;3.3;;;;;;;33.89;32.2998;936.538;;;;
2021/06/17 09:38:14;;;;;;;3.7;3.1;;;;;;;34.62;31.50781;936.5488;;;;
2021/06/17 09:40:47;;;;;;;4.8;3.4;;;;;;;34.19;31.47852;936.5556;;;;
2021/06/17 09:43:11;;;;;;;3.5;3.2;;;;;;;33.5;33.26953;936.5059;;;;
2021/06/17 09:45:43;;;;;;;5.4;3.2;;;;;;;33.89;31.67383;936.5616;;;;
2021/06/17 09:48:08;;;;;;;3.7;3.4;;;;;;;33.76;31.54492;936.5888;;;;
2021/06/17 09:50:33;;;;;;;3.9;3.5;;;;;;;33.84;31.9707;936.5801;;;;
2021/06/17 09:53:00;;;;;;;4.4;3.2;;;;;;;33.33;33.38965;936.5503;;;;
2021/06/17 09:55:25;;;;;;;4.9;3.7;;;;;;;33.29;33.19434;936.5529;;;;
2021/06/17 09:57:50;;;;;;;4.2;3.6;;;;;;;33.59;32.87988;936.5782;;;;
2021/06/17 10:00:17;;;;;;;4.4;3.5;;;;;;;33.63;32.9668;936.6046;;;;
2021/06/17 10:02:42;;;;;;;4;3.6;;;;;;;32.99;34.45801;936.5817;;;;
2021/06/17 10:05:13;;;;;;;5.8;3.6;;;;;;;31.77;36.42578;936.5983;;;;
2021/06/17 10:07:35;;;;;;;6.8;4;;;;;;;32.32;35.51074;936.6022;;;;
2021/06/17 10:10:00;;;;;;;5.5;4;;;;;;;32.73;36.13086;936.6328;;;;
2021/06/17 10:12:26;;;;;;;4.2;3.8;;;;;;;32.91;36.36133;936.5697;;;;
2021/06/17 10:14:51;;;;;;;3.8;3.5;;;;;;;33.04;35.1582;936.6406;;;;
2021/06/17 10:17:20;;;;;;;4.8;4.1;;;;;;;32.15;36.63672;936.5811;;;;
2021/06/17 10:19:47;;;;;;;3.7;3.4;;;;;;;32.34;37.10742;936.5829;;;;
2021/06/17 10:22:12;;;;;;;4.2;3.8;;;;;;;32.4;36.76367;936.5356;;;;
2021/06/17 10:24:40;;;;;;;6.4;3.6;;;;;;;32.53;35.79102;936.5403;;;;
2021/06/17 10:27:06;;;;;;;5.2;3.6;;;;;;;32.49;37.27539;936.5541;;;;
2021/06/17 10:29:31;;;;;;;4.7;3.4;;;;;;;32.16;35.41406;936.4749;;;;
2021/06/17 10:32:46;;;;;;;3.7;3.4;;;;;;;31.72;36.38574;936.5422;;;;
2021/06/17 10:35:07;;;;;;;5.2;3.7;;;;;;;32.14;37.17383;936.5488;;;;
2021/06/17 10:37:32;;;;;;;5.1;3.7;;;;;;;32.13;37.1377;936.4984;;;;
2021/06/17 10:39:59;;;;;;;4.4;3.6;;;;;;;31.68;38.42969;936.5549;;;;
2021/06/17 10:42:23;;;;;;;4.1;3.5;;;;;;;31.25;38.59766;936.6314;;;;
2021/06/17 10:44:48;;;;;;;5.2;3.7;;;;;;;30.95;37.84277;936.5278;;;;
2021/06/17 10:47:16;;;;;;;4.8;3.6;;;;;;;30.92;38.28223;936.5073;;;;
2021/06/17 10:49:38;;;;;;;7.2;3.8;;;;;;;30.89;37.62207;936.5302;;;;
2021/06/17 10:52:03;;;;;;;6.3;3.6;;;;;;;31.14;38.88672;936.4958;;;;
2021/06/17 10:54:30;;;;;;;6.1;3.4;;;;;;;31.17;37.77637;936.4922;;;;
2021/06/17 10:56:55;;;;;;;5.3;3.8;;;;;;;31.15;38.31348;936.4803;;;;
2021/06/17 10:59:20;;;;;;;4.8;3.3;;;;;;;31.02;38.1709;936.3844;;;;
2021/06/17 11:01:49;;;;;;;4.7;3.7;;;;;;;31.39;36.92188;936.3962;;;;
2021/06/17 11:04:16;;;;;;;6.1;3.8;;;;;;;31.79;38.58301;936.3491;;;;
2021/06/17 11:06:41;;;;;;;3.9;3.3;;;;;;;31.46;38.3877;936.3613;;;;
2021/06/17 11:09:08;;;;;;;4.9;3.6;;;;;;;31.55;38.26367;936.3736;;;;
2021/06/17 11:11:35;;;;;;;4.2;3.3;;;;;;;31.75;37.53809;936.3251;;;;
2021/06/17 11:14:02;;;;;;;3.6;3.3;;;;;;;32.1;36.87109;936.242;;;;
2021/06/17 11:16:27;;;;;;;3.6;3.2;;;;;;;32.46;37.47754;936.1531;;;;
2021/06/17 11:18:59;;;;;;;5.9;3.4;;;;;;;32.75;34.63184;936.2111;;;;
2021/06/17 11:21:20;;;;;;;6.8;3.5;;;;;;;32.88;36.2627;936.1887;;;;
2021/06/17 11:23:45;;;;;;;6.5;3.7;;;;;;;32.9;36.63672;936.1976;;;;
2021/06/17 11:26:10;;;;;;;3.7;3.4;;;;;;;32.76;36.20508;936.2106;;;;
2021/06/17 11:28:35;;;;;;;4;3.2;;;;;;;32.91;36.58887;936.1702;;;;
2021/06/17 11:31:03;;;;;;;4.1;3.2;;;;;;;33.06;33.30957;936.1443;;;;
2021/06/17 11:33:28;;;;;;;3.9;3.5;;;;;;;32.62;35.76172;936.1188;;;;
2021/06/17 11:35:57;;;;;;;4.8;3.5;;;;;;;32.22;38.52344;936.1309;;;;
2021/06/17 11:38:20;;;;;;;5.7;3.2;;;;;;;31.88;37.80078;936.1414;;;;
2021/06/17 11:40:46;;;;;;;5.1;3.3;;;;;;;31.96;36.36816;936.1305;;;;
2021/06/17 11:43:11;;;;;;;4.4;3.4;;;;;;;32.16;37.66797;936.139;;;;
2021/06/17 11:45:39;;;;;;;5.6;3.4;;;;;;;32.05;36.45996;936.0897;;;;
2021/06/17 11:48:04;;;;;;;9;3.6;;;;;;;32.2;35.7168;936.0828;;;;
2021/06/17 11:50:31;;;;;;;4.2;3.4;;;;;;;32.54;34.9873;935.9944;;;;
2021/06/17 11:52:57;;;;;;;6.6;3.3;;;;;;;32.33;35.78711;935.9612;;;;
2021/06/17 11:55:23;;;;;;;4.9;3.3;;;;;;;31.98;36.23828;935.9224;;;;
2021/06/17 11:57:48;;;;;;;5.3;3.1;;;;;;;31.53;37.49512;935.9568;;;;
2021/06/17 12:00:16;;;;;;;4.7;3.4;;;;;;;31.33;38.00586;935.9937;;;;
2021/06/17 12:02:43;;;;;;;5.3;3.4;;;;;;;31.81;36.52441;935.9412;;;;
2021/06/17 12:05:06;;;;;;;5.7;3.7;;;;;;;31.63;37.91113;935.9762;;;;
2021/06/17 12:07:31;;;;;;;3.4;3.1;;;;;;;31.59;36.83008;935.9194;;;;
2021/06/17 12:09:56;;;;;;;3.6;3.3;;;;;;;31.52;37.02832;935.9623;;;;
2021/06/17 12:12:22;;;;;;;6.9;3.5;;;;;;;31.19;38.05469;935.9382;;;;
2021/06/17 12:14:49;;;;;;;5.8;3.2;;;;;;;31.24;38.50098;935.9412;;;;
2021/06/17 12:17:20;;;;;;;4.8;3.6;;;;;;;31.43;37.04492;935.9136;;;;
2021/06/17 12:19:49;;;;;;;9.6;3.8;;;;;;;31.77;37.14453;935.8904;;;;
2021/06/17 12:22:14;;;;;;;7.1;3.4;;;;;;;31.69;36.95801;935.8367;;;;
2021/06/17 12:24:39;;;;;;;3.8;3.3;;;;;;;31.46;36.41309;935.7634;;;;
2021/06/17 12:27:06;;;;;;;3.8;3.5;;;;;;;31.45;37.94336;935.8184;;;;
2021/06/17 12:29:31;;;;;;;6.3;3.2;;;;;;;31.57;36.43262;935.7414;;;;
2021/06/17 12:31:57;;;;;;;4.6;3.3;;;;;;;31.49;37.79199;935.7753;;;;
2021/06/17 12:34:22;;;;;;;5.4;3.3;;;;;;;31.37;36.5127;935.6947;;;;
2021/06/17 12:36:51;;;;;;;3.9;3.2;;;;;;;31.41;35.72656;935.7629;;;;
2021/06/17 12:39:16;;;;;;;7.2;3.3;;;;;;;31.74;36.04004;935.7859;;;;
2021/06/17 12:41:42;;;;;;;3.5;3.2;;;;;;;31.74;35.12891;935.7172;;;;
2021/06/17 12:44:09;;;;;;;4.7;3;;;;;;;31.57;37.03223;935.6992;;;;
2021/06/17 12:46:38;;;;;;;3.4;3.1;;;;;;;31.21;37.68457;935.7408;;;;
2021/06/17 12:49:13;;;;;;;6.4;3.2;;;;;;;31.01;36.7832;935.7004;;;;
2021/06/17 12:53:49;;;;;;;4.7;2.9;;;;;;;30.92;36.7041;935.6138;;;;
2021/06/17 12:56:15;;;;;;;3.6;3.2;;;;;;;30.96;37.20996;935.6575;;;;
2021/06/17 12:58:43;;;;;;;5.9;3.3;;;;;;;31.05;36.14063;935.5806;;;;
2021/06/17 13:01:09;;;;;;;3.5;2.8;;;;;;;31.11;35.77441;935.6563;;;;
2021/06/17 13:03:34;;;;;;;5.1;3.4;;;;;;;31.1;36.61133;935.6383;;;;
2021/06/17 13:06:00;;;;;;;4.7;3.5;;;;;;;31.33;35.00195;935.4844;;;;
2021/06/17 13:08:25;;;;;;;3.8;3.4;;;;;;;31.24;36.87402;935.5117;;;;
2021/06/17 13:10:55;;;;;;;3.8;3.4;;;;;;;31.1;36.03613;935.5703;;;;
2021/06/17 13:13:20;;;;;;;5;3.3;;;;;;;31.48;35.48047;935.5956;;;;
2021/06/17 13:15:59;;;;;;;8.5;3.3;;;;;;;31.52;35.44727;935.572;;;;
2021/06/17 13:18:24;;;;;;;5;3.4;;;;;;;31.58;37.36816;935.6306;;;;
2021/06/17 13:20:49;;;;;;;5.2;3.3;;;;;;;31.67;36.17871;935.6232;;;;
2021/06/17 13:23:16;;;;;;;4.6;3.2;;;;;;;31.78;36.19922;935.6807;;;;
2021/06/17 13:25:39;;;;;;;3.7;3.1;;;;;;;31.9;35.88477;935.6591;;;;
2021/06/17 13:28:06;;;;;;;3.8;3;;;;;;;31.99;34.05859;935.668;;;;
2021/06/17 13:30:32;;;;;;;5.7;3.4;;;;;;;31.54;36.16797;935.6499;;;;
2021/06/17 13:32:58;;;;;;;4.8;3.4;;;;;;;31.38;36.25;935.6616;;;;
2021/06/17 13:35:23;;;;;;;8.2;3.4;;;;;;;31.47;35.58789;935.6342;;;;
2021/06/17 13:37:50;;;;;;;3.1;2.8;;;;;;;31.56;35.21191;935.5909;;;;
2021/06/17 13:40:14;;;;;;;4.7;3.1;;;;;;;31.56;35.13965;935.6451;;;;
2021/06/17 13:42:41;;;;;;;4.4;2.8;;;;;;;31.69;35.41406;935.6497;;;;
2021/06/17 13:45:06;;;;;;;4.5;3.1;;;;;;;31.82;34.48926;935.6878;;;;
2021/06/17 13:47:32;;;;;;;5.4;2.9;;;;;;;31.93;35.45508;935.6811;;;;
2021/06/17 13:49:57;;;;;;;4.3;3.1;;;;;;;31.9;34.6875;935.5589;;;;
2021/06/17 13:52:23;;;;;;;3.3;3;;;;;;;32.01;34.27637;935.678;;;;
2021/06/17 13:54:48;;;;;;;10.2;3.6;;;;;;;32.11;34.69043;935.6662;;;;
2021/06/17 13:57:15;;;;;;;4.3;2.9;;;;;;;32.26;33.49121;935.6428;;;;
2021/06/17 13:59:40;;;;;;;5.1;3.1;;;;;;;31.96;35.72168;935.6609;;;;
2021/06/17 14:02:06;;;;;;;4;2.9;;;;;;;31.95;34.2832;935.6156;;;;
2021/06/17 14:04:31;;;;;;;7.1;3;;;;;;;31.9;34.9502;935.5906;;;;
2021/06/17 14:06:58;;;;;;;3.5;3.2;;;;;;;32.04;34.49316;935.593;;;;
2021/06/17 14:09:23;;;;;;;6.1;2.7;;;;;;;31.91;34.73633;935.5845;;;;
2021/06/17 14:11:48;;;;;;;5.5;2.9;;;;;;;31.28;35.20215;935.5642;;;;
2021/06/17 14:14:15;;;;;;;4.2;2.9;;;;;;;31.5;34.06934;935.6086;;;;
2021/06/17 14:16:48;;;;;;;6.5;3;;;;;;;31.44;34.41211;935.603;;;;
2021/06/17 14:19:13;;;;;;;3.7;2.5;;;;;;;31.22;35.48438;935.6403;;;;
2021/06/17 14:21:39;;;;;;;4.1;2.8;;;;;;;30.92;35.89063;935.6149;;;;
2021/06/17 14:24:05;;;;;;;6.2;3.1;;;;;;;30.98;37.19922;935.6142;;;;
2021/06/17 14:26:31;;;;;;;3.8;3.3;;;;;;;31.05;35.55371;935.6853;;;;
2021/06/17 14:28:56;;;;;;;4.3;3;;;;;;;31.26;36.06152;935.6781;;;;
2021/06/17 14:31:21;;;;;;;6.1;3.2;;;;;;;31.14;34.78418;935.6741;;;;
2021/06/17 14:33:48;;;;;;;3.7;3.3;;;;;;;31.26;34.72168;935.6195;;;;